sensor_id;sensor_type;location;lat;lon;timestamp;P1;durP1;ratioP1;P2;durP2;ratioP2
28483;SDS011;15704;48.834;8.736;2024-02-21T00:00:26;1.10;;;0.80;;
28483;SDS011;15704;48.834;8.736;2024-02-21T00:02:52;1.30;;;1.00;;
28483;SDS011;15704;48.834;8.736;2024-02-21T00:05:20;0.98;;;0.88;;
28483;SDS011;15704;48.834;8.736;2024-02-21T00:07:47;1.15;;;0.95;;
28483;SDS011;15704;48.834;8.736;2024-02-21T00:10:14;1.00;;;0.85;;
28483;SDS011;15704;48.834;8.736;2024-02-21T00:12:40;1.00;;;0.90;;
28483;SDS011;15704;48.834;8.736;2024-02-21T00:15:07;1.45;;;1.10;;
28483;SDS011;15704;48.834;8.736;2024-02-21T00:17:35;1.58;;;1.00;;
28483;SDS011;15704;48.834;8.736;2024-02-21T00:20:01;1.58;;;0.95;;
28483;SDS011;15704;48.834;8.736;2024-02-21T00:22:28;1.58;;;0.95;;
28483;SDS011;15704;48.834;8.736;2024-02-21T00:24:57;1.63;;;1.00;;
28483;SDS011;15704;48.834;8.736;2024-02-21T00:27:24;1.45;;;0.90;;
28483;SDS011;15704;48.834;8.736;2024-02-21T00:29:51;1.00;;;0.95;;
28483;SDS011;15704;48.834;8.736;2024-02-21T00:32:17;0.93;;;0.82;;
28483;SDS011;15704;48.834;8.736;2024-02-21T00:34:44;2.40;;;1.10;;
28483;SDS011;15704;48.834;8.736;2024-02-21T00:37:11;0.95;;;0.85;;
28483;SDS011;15704;48.834;8.736;2024-02-21T00:39:38;1.80;;;1.00;;
28483;SDS011;15704;48.834;8.736;2024-02-21T00:42:05;0.80;;;0.65;;
28483;SDS011;15704;48.834;8.736;2024-02-21T00:44:33;1.88;;;0.90;;
28483;SDS011;15704;48.834;8.736;2024-02-21T00:47:00;0.70;;;0.70;;
28483;SDS011;15704;48.834;8.736;2024-02-21T00:49:27;1.23;;;0.73;;
28483;SDS011;15704;48.834;8.736;2024-02-21T00:51:54;0.80;;;0.80;;
28483;SDS011;15704;48.834;8.736;2024-02-21T00:54:21;1.13;;;0.90;;
28483;SDS011;15704;48.834;8.736;2024-02-21T00:56:49;1.58;;;1.08;;
28483;SDS011;15704;48.834;8.736;2024-02-21T00:59:15;1.00;;;0.80;;
28483;SDS011;15704;48.834;8.736;2024-02-21T01:01:43;1.35;;;0.90;;
28483;SDS011;15704;48.834;8.736;2024-02-21T01:04:09;0.90;;;0.80;;
28483;SDS011;15704;48.834;8.736;2024-02-21T01:06:37;0.98;;;0.80;;
28483;SDS011;15704;48.834;8.736;2024-02-21T01:09:04;1.75;;;0.98;;
28483;SDS011;15704;48.834;8.736;2024-02-21T01:11:30;2.03;;;1.10;;
28483;SDS011;15704;48.834;8.736;2024-02-21T01:13:57;0.82;;;0.80;;
28483;SDS011;15704;48.834;8.736;2024-02-21T01:16:24;1.00;;;0.75;;
28483;SDS011;15704;48.834;8.736;2024-02-21T01:18:52;0.95;;;0.70;;
28483;SDS011;15704;48.834;8.736;2024-02-21T01:21:19;0.73;;;0.60;;
28483;SDS011;15704;48.834;8.736;2024-02-21T01:23:45;1.42;;;1.13;;
28483;SDS011;15704;48.834;8.736;2024-02-21T01:26:12;1.40;;;0.90;;
28483;SDS011;15704;48.834;8.736;2024-02-21T01:28:41;1.65;;;1.10;;
28483;SDS011;15704;48.834;8.736;2024-02-21T01:31:08;1.02;;;0.82;;
28483;SDS011;15704;48.834;8.736;2024-02-21T01:33:38;0.80;;;0.77;;
28483;SDS011;15704;48.834;8.736;2024-02-21T01:36:05;1.10;;;0.80;;
28483;SDS011;15704;48.834;8.736;2024-02-21T01:38:33;2.75;;;1.20;;
28483;SDS011;15704;48.834;8.736;2024-02-21T01:40:59;1.92;;;1.08;;
28483;SDS011;15704;48.834;8.736;2024-02-21T01:43:26;0.85;;;0.77;;
28483;SDS011;15704;48.834;8.736;2024-02-21T01:45:54;1.05;;;0.88;;
28483;SDS011;15704;48.834;8.736;2024-02-21T01:48:22;1.55;;;0.90;;
28483;SDS011;15704;48.834;8.736;2024-02-21T01:50:50;0.88;;;0.85;;
28483;SDS011;15704;48.834;8.736;2024-02-21T01:53:22;1.15;;;0.85;;
28483;SDS011;15704;48.834;8.736;2024-02-21T01:55:53;1.20;;;0.90;;
28483;SDS011;15704;48.834;8.736;2024-02-21T01:58:21;1.70;;;0.95;;
28483;SDS011;15704;48.834;8.736;2024-02-21T02:00:49;0.90;;;0.75;;
28483;SDS011;15704;48.834;8.736;2024-02-21T02:03:16;0.63;;;0.60;;
28483;SDS011;15704;48.834;8.736;2024-02-21T02:05:47;0.77;;;0.77;;
28483;SDS011;15704;48.834;8.736;2024-02-21T02:08:18;0.93;;;0.88;;
28483;SDS011;15704;48.834;8.736;2024-02-21T02:10:45;0.77;;;0.77;;
28483;SDS011;15704;48.834;8.736;2024-02-21T02:13:12;1.70;;;0.90;;
28483;SDS011;15704;48.834;8.736;2024-02-21T02:15:46;0.70;;;0.70;;
28483;SDS011;15704;48.834;8.736;2024-02-21T02:18:14;0.98;;;0.77;;
28483;SDS011;15704;48.834;8.736;2024-02-21T02:20:43;1.70;;;0.73;;
28483;SDS011;15704;48.834;8.736;2024-02-21T02:23:11;0.88;;;0.80;;
28483;SDS011;15704;48.834;8.736;2024-02-21T02:25:45;1.55;;;0.93;;
28483;SDS011;15704;48.834;8.736;2024-02-21T02:28:15;1.30;;;1.00;;
28483;SDS011;15704;48.834;8.736;2024-02-21T02:30:42;0.75;;;0.70;;
28483;SDS011;15704;48.834;8.736;2024-02-21T02:33:09;1.40;;;1.02;;
28483;SDS011;15704;48.834;8.736;2024-02-21T02:35:36;0.47;;;0.47;;
28483;SDS011;15704;48.834;8.736;2024-02-21T02:38:03;0.90;;;0.70;;
28483;SDS011;15704;48.834;8.736;2024-02-21T02:40:33;1.70;;;0.80;;
28483;SDS011;15704;48.834;8.736;2024-02-21T02:43:01;0.73;;;0.68;;
28483;SDS011;15704;48.834;8.736;2024-02-21T02:45:28;0.90;;;0.77;;
28483;SDS011;15704;48.834;8.736;2024-02-21T02:47:55;1.45;;;1.13;;
28483;SDS011;15704;48.834;8.736;2024-02-21T02:50:26;2.55;;;1.00;;
28483;SDS011;15704;48.834;8.736;2024-02-21T02:52:54;0.63;;;0.63;;
28483;SDS011;15704;48.834;8.736;2024-02-21T02:55:21;1.33;;;0.77;;
28483;SDS011;15704;48.834;8.736;2024-02-21T02:57:48;1.73;;;0.82;;
28483;SDS011;15704;48.834;8.736;2024-02-21T03:00:15;0.93;;;0.70;;
28483;SDS011;15704;48.834;8.736;2024-02-21T03:02:43;1.10;;;0.80;;
28483;SDS011;15704;48.834;8.736;2024-02-21T03:05:14;0.80;;;0.75;;
28483;SDS011;15704;48.834;8.736;2024-02-21T03:07:43;0.60;;;0.60;;
28483;SDS011;15704;48.834;8.736;2024-02-21T03:10:10;0.60;;;0.60;;
28483;SDS011;15704;48.834;8.736;2024-02-21T03:12:38;1.13;;;0.90;;
28483;SDS011;15704;48.834;8.736;2024-02-21T03:15:05;0.95;;;0.80;;
28483;SDS011;15704;48.834;8.736;2024-02-21T03:17:32;1.30;;;0.80;;
28483;SDS011;15704;48.834;8.736;2024-02-21T03:20:04;1.00;;;0.70;;
28483;SDS011;15704;48.834;8.736;2024-02-21T03:22:32;0.82;;;0.70;;
28483;SDS011;15704;48.834;8.736;2024-02-21T03:24:59;1.00;;;0.70;;
28483;SDS011;15704;48.834;8.736;2024-02-21T03:27:26;2.17;;;1.00;;
28483;SDS011;15704;48.834;8.736;2024-02-21T03:29:53;1.33;;;0.80;;
28483;SDS011;15704;48.834;8.736;2024-02-21T03:32:22;1.23;;;0.70;;
28483;SDS011;15704;48.834;8.736;2024-02-21T03:34:50;1.50;;;0.93;;
28483;SDS011;15704;48.834;8.736;2024-02-21T03:37:17;1.35;;;0.93;;
28483;SDS011;15704;48.834;8.736;2024-02-21T03:39:45;1.58;;;0.80;;
28483;SDS011;15704;48.834;8.736;2024-02-21T03:42:12;0.90;;;0.70;;
28483;SDS011;15704;48.834;8.736;2024-02-21T03:44:38;1.35;;;0.70;;
28483;SDS011;15704;48.834;8.736;2024-02-21T03:47:05;1.20;;;0.80;;
28483;SDS011;15704;48.834;8.736;2024-02-21T03:49:32;1.73;;;0.90;;
28483;SDS011;15704;48.834;8.736;2024-02-21T03:51:59;1.13;;;0.80;;
28483;SDS011;15704;48.834;8.736;2024-02-21T03:54:26;1.00;;;0.88;;
28483;SDS011;15704;48.834;8.736;2024-02-21T03:56:52;1.35;;;0.98;;
28483;SDS011;15704;48.834;8.736;2024-02-21T03:59:19;1.08;;;0.70;;
28483;SDS011;15704;48.834;8.736;2024-02-21T04:01:46;1.55;;;0.80;;
28483;SDS011;15704;48.834;8.736;2024-02-21T04:04:13;1.27;;;0.80;;
28483;SDS011;15704;48.834;8.736;2024-02-21T04:06:49;3.00;;;1.00;;
28483;SDS011;15704;48.834;8.736;2024-02-21T04:09:16;1.02;;;0.88;;
28483;SDS011;15704;48.834;8.736;2024-02-21T04:11:45;0.93;;;0.80;;
28483;SDS011;15704;48.834;8.736;2024-02-21T04:14:12;1.63;;;0.88;;
28483;SDS011;15704;48.834;8.736;2024-02-21T04:16:39;0.85;;;0.77;;
28483;SDS011;15704;48.834;8.736;2024-02-21T04:19:06;1.00;;;0.77;;
28483;SDS011;15704;48.834;8.736;2024-02-21T04:21:34;1.23;;;0.80;;
28483;SDS011;15704;48.834;8.736;2024-02-21T04:24:01;1.23;;;0.90;;
28483;SDS011;15704;48.834;8.736;2024-02-21T04:26:31;1.27;;;0.90;;
28483;SDS011;15704;48.834;8.736;2024-02-21T04:28:59;1.30;;;1.17;;
28483;SDS011;15704;48.834;8.736;2024-02-21T04:31:26;0.85;;;0.80;;
28483;SDS011;15704;48.834;8.736;2024-02-21T04:33:53;1.55;;;1.00;;
28483;SDS011;15704;48.834;8.736;2024-02-21T04:36:20;1.40;;;0.90;;
28483;SDS011;15704;48.834;8.736;2024-02-21T04:38:46;1.70;;;0.82;;
28483;SDS011;15704;48.834;8.736;2024-02-21T04:41:13;1.52;;;0.90;;
28483;SDS011;15704;48.834;8.736;2024-02-21T04:43:40;1.70;;;0.90;;
28483;SDS011;15704;48.834;8.736;2024-02-21T04:46:07;1.35;;;1.10;;
28483;SDS011;15704;48.834;8.736;2024-02-21T04:48:34;0.90;;;0.60;;
28483;SDS011;15704;48.834;8.736;2024-02-21T04:51:01;1.45;;;0.80;;
28483;SDS011;15704;48.834;8.736;2024-02-21T04:53:27;1.70;;;0.90;;
28483;SDS011;15704;48.834;8.736;2024-02-21T04:55:54;1.38;;;0.98;;
28483;SDS011;15704;48.834;8.736;2024-02-21T04:58:22;2.22;;;1.00;;
28483;SDS011;15704;48.834;8.736;2024-02-21T05:00:48;1.52;;;0.90;;
28483;SDS011;15704;48.834;8.736;2024-02-21T05:03:15;1.70;;;0.80;;
28483;SDS011;15704;48.834;8.736;2024-02-21T05:05:42;0.70;;;0.70;;
28483;SDS011;15704;48.834;8.736;2024-02-21T05:08:10;1.38;;;0.90;;
28483;SDS011;15704;48.834;8.736;2024-02-21T05:10:37;1.40;;;0.93;;
28483;SDS011;15704;48.834;8.736;2024-02-21T05:13:03;1.65;;;0.82;;
28483;SDS011;15704;48.834;8.736;2024-02-21T05:15:31;0.98;;;0.70;;
28483;SDS011;15704;48.834;8.736;2024-02-21T05:17:57;1.15;;;0.88;;
28483;SDS011;15704;48.834;8.736;2024-02-21T05:20:24;1.48;;;0.95;;
28483;SDS011;15704;48.834;8.736;2024-02-21T05:22:51;0.73;;;0.70;;
28483;SDS011;15704;48.834;8.736;2024-02-21T05:25:18;0.70;;;0.70;;
28483;SDS011;15704;48.834;8.736;2024-02-21T05:27:45;0.90;;;0.68;;
28483;SDS011;15704;48.834;8.736;2024-02-21T05:30:12;1.08;;;0.70;;
28483;SDS011;15704;48.834;8.736;2024-02-21T05:32:39;1.38;;;0.70;;
28483;SDS011;15704;48.834;8.736;2024-02-21T05:35:06;1.67;;;0.80;;
28483;SDS011;15704;48.834;8.736;2024-02-21T05:37:33;1.63;;;1.00;;
28483;SDS011;15704;48.834;8.736;2024-02-21T05:40:00;1.08;;;0.82;;
28483;SDS011;15704;48.834;8.736;2024-02-21T05:42:27;2.13;;;1.08;;
28483;SDS011;15704;48.834;8.736;2024-02-21T05:44:54;1.05;;;0.90;;
28483;SDS011;15704;48.834;8.736;2024-02-21T05:47:21;1.85;;;0.98;;
28483;SDS011;15704;48.834;8.736;2024-02-21T05:49:47;1.42;;;0.85;;
28483;SDS011;15704;48.834;8.736;2024-02-21T05:52:14;1.30;;;0.80;;
28483;SDS011;15704;48.834;8.736;2024-02-21T05:54:42;0.98;;;0.70;;
28483;SDS011;15704;48.834;8.736;2024-02-21T05:57:08;1.15;;;0.80;;
28483;SDS011;15704;48.834;8.736;2024-02-21T05:59:37;0.85;;;0.75;;
28483;SDS011;15704;48.834;8.736;2024-02-21T06:02:06;1.30;;;0.75;;
28483;SDS011;15704;48.834;8.736;2024-02-21T06:04:33;0.63;;;0.60;;
28483;SDS011;15704;48.834;8.736;2024-02-21T06:07:00;1.08;;;0.73;;
28483;SDS011;15704;48.834;8.736;2024-02-21T06:09:28;1.52;;;0.77;;
28483;SDS011;15704;48.834;8.736;2024-02-21T06:11:55;1.08;;;0.80;;
28483;SDS011;15704;48.834;8.736;2024-02-21T06:14:22;1.92;;;0.95;;
28483;SDS011;15704;48.834;8.736;2024-02-21T06:16:48;1.25;;;0.75;;
28483;SDS011;15704;48.834;8.736;2024-02-21T06:19:15;1.42;;;0.88;;
28483;SDS011;15704;48.834;8.736;2024-02-21T06:21:42;1.10;;;0.75;;
28483;SDS011;15704;48.834;8.736;2024-02-21T06:24:09;0.88;;;0.75;;
28483;SDS011;15704;48.834;8.736;2024-02-21T06:26:36;0.73;;;0.52;;
28483;SDS011;15704;48.834;8.736;2024-02-21T06:29:03;1.02;;;0.73;;
28483;SDS011;15704;48.834;8.736;2024-02-21T06:31:30;0.90;;;0.70;;
28483;SDS011;15704;48.834;8.736;2024-02-21T06:33:58;0.88;;;0.70;;
28483;SDS011;15704;48.834;8.736;2024-02-21T06:36:25;0.70;;;0.60;;
28483;SDS011;15704;48.834;8.736;2024-02-21T06:38:52;1.15;;;0.70;;
28483;SDS011;15704;48.834;8.736;2024-02-21T06:41:19;1.42;;;0.77;;
28483;SDS011;15704;48.834;8.736;2024-02-21T06:43:46;1.15;;;0.80;;
28483;SDS011;15704;48.834;8.736;2024-02-21T06:46:26;1.00;;;0.80;;
28483;SDS011;15704;48.834;8.736;2024-02-21T06:48:58;1.05;;;0.70;;
28483;SDS011;15704;48.834;8.736;2024-02-21T06:51:26;1.38;;;0.73;;
28483;SDS011;15704;48.834;8.736;2024-02-21T06:53:54;1.33;;;0.75;;
28483;SDS011;15704;48.834;8.736;2024-02-21T06:56:24;1.02;;;0.80;;
28483;SDS011;15704;48.834;8.736;2024-02-21T06:58:55;0.60;;;0.60;;
28483;SDS011;15704;48.834;8.736;2024-02-21T07:01:23;1.05;;;0.80;;
28483;SDS011;15704;48.834;8.736;2024-02-21T07:03:50;1.45;;;0.88;;
28483;SDS011;15704;48.834;8.736;2024-02-21T07:06:17;0.52;;;0.52;;
28483;SDS011;15704;48.834;8.736;2024-02-21T07:08:44;1.25;;;0.90;;
28483;SDS011;15704;48.834;8.736;2024-02-21T07:11:10;1.10;;;0.80;;
28483;SDS011;15704;48.834;8.736;2024-02-21T07:13:40;1.30;;;1.00;;
28483;SDS011;15704;48.834;8.736;2024-02-21T07:16:07;0.45;;;0.45;;
28483;SDS011;15704;48.834;8.736;2024-02-21T07:18:34;1.02;;;0.77;;
28483;SDS011;15704;48.834;8.736;2024-02-21T07:21:01;0.75;;;0.63;;
28483;SDS011;15704;48.834;8.736;2024-02-21T07:23:28;1.27;;;0.80;;
28483;SDS011;15704;48.834;8.736;2024-02-21T07:25:55;1.30;;;1.00;;
28483;SDS011;15704;48.834;8.736;2024-02-21T07:28:22;0.90;;;0.68;;
28483;SDS011;15704;48.834;8.736;2024-02-21T07:30:48;0.70;;;0.55;;
28483;SDS011;15704;48.834;8.736;2024-02-21T07:33:15;1.15;;;0.60;;
28483;SDS011;15704;48.834;8.736;2024-02-21T07:35:42;0.80;;;0.80;;
28483;SDS011;15704;48.834;8.736;2024-02-21T07:38:11;0.60;;;0.60;;
28483;SDS011;15704;48.834;8.736;2024-02-21T07:40:39;1.23;;;0.85;;
28483;SDS011;15704;48.834;8.736;2024-02-21T07:43:05;1.30;;;0.80;;
28483;SDS011;15704;48.834;8.736;2024-02-21T07:45:34;1.02;;;0.77;;
28483;SDS011;15704;48.834;8.736;2024-02-21T07:48:01;0.98;;;0.80;;
28483;SDS011;15704;48.834;8.736;2024-02-21T07:50:28;0.90;;;0.80;;
28483;SDS011;15704;48.834;8.736;2024-02-21T07:52:55;1.30;;;0.73;;
28483;SDS011;15704;48.834;8.736;2024-02-21T07:55:22;1.10;;;0.70;;
28483;SDS011;15704;48.834;8.736;2024-02-21T07:57:49;1.38;;;0.75;;
28483;SDS011;15704;48.834;8.736;2024-02-21T08:00:16;0.80;;;0.60;;
28483;SDS011;15704;48.834;8.736;2024-02-21T08:02:47;1.80;;;0.80;;
28483;SDS011;15704;48.834;8.736;2024-02-21T08:05:14;0.80;;;0.73;;
28483;SDS011;15704;48.834;8.736;2024-02-21T08:07:41;1.38;;;0.75;;
28483;SDS011;15704;48.834;8.736;2024-02-21T08:10:08;1.00;;;0.88;;
28483;SDS011;15704;48.834;8.736;2024-02-21T08:12:35;1.00;;;0.70;;
28483;SDS011;15704;48.834;8.736;2024-02-21T08:15:02;1.20;;;0.70;;
28483;SDS011;15704;48.834;8.736;2024-02-21T08:17:34;0.70;;;0.60;;
28483;SDS011;15704;48.834;8.736;2024-02-21T08:20:02;1.15;;;0.90;;
28483;SDS011;15704;48.834;8.736;2024-02-21T08:22:30;1.13;;;0.75;;
28483;SDS011;15704;48.834;8.736;2024-02-21T08:24:58;0.70;;;0.60;;
28483;SDS011;15704;48.834;8.736;2024-02-21T08:27:25;0.95;;;0.80;;
28483;SDS011;15704;48.834;8.736;2024-02-21T08:29:52;1.15;;;0.82;;
28483;SDS011;15704;48.834;8.736;2024-02-21T08:32:19;1.40;;;0.77;;
28483;SDS011;15704;48.834;8.736;2024-02-21T08:34:46;1.20;;;0.70;;
28483;SDS011;15704;48.834;8.736;2024-02-21T08:37:12;1.08;;;0.82;;
28483;SDS011;15704;48.834;8.736;2024-02-21T08:39:39;2.25;;;1.05;;
28483;SDS011;15704;48.834;8.736;2024-02-21T08:42:06;1.30;;;0.70;;
28483;SDS011;15704;48.834;8.736;2024-02-21T08:44:33;1.20;;;0.65;;
28483;SDS011;15704;48.834;8.736;2024-02-21T08:47:00;1.00;;;0.70;;
28483;SDS011;15704;48.834;8.736;2024-02-21T08:49:30;1.20;;;0.70;;
28483;SDS011;15704;48.834;8.736;2024-02-21T08:52:00;0.73;;;0.63;;
28483;SDS011;15704;48.834;8.736;2024-02-21T08:54:29;1.80;;;0.77;;
28483;SDS011;15704;48.834;8.736;2024-02-21T08:56:57;1.02;;;0.80;;
28483;SDS011;15704;48.834;8.736;2024-02-21T08:59:24;1.02;;;0.70;;
28483;SDS011;15704;48.834;8.736;2024-02-21T09:01:52;1.23;;;0.60;;
28483;SDS011;15704;48.834;8.736;2024-02-21T09:04:19;1.08;;;0.80;;
28483;SDS011;15704;48.834;8.736;2024-02-21T09:06:46;1.38;;;0.70;;
28483;SDS011;15704;48.834;8.736;2024-02-21T09:09:14;0.68;;;0.60;;
28483;SDS011;15704;48.834;8.736;2024-02-21T09:11:40;1.15;;;0.70;;
28483;SDS011;15704;48.834;8.736;2024-02-21T09:14:07;0.80;;;0.65;;
28483;SDS011;15704;48.834;8.736;2024-02-21T09:16:34;1.38;;;0.77;;
28483;SDS011;15704;48.834;8.736;2024-02-21T09:19:01;1.25;;;0.80;;
28483;SDS011;15704;48.834;8.736;2024-02-21T09:21:28;1.10;;;0.82;;
28483;SDS011;15704;48.834;8.736;2024-02-21T09:23:55;0.77;;;0.60;;
28483;SDS011;15704;48.834;8.736;2024-02-21T09:26:25;0.77;;;0.70;;
28483;SDS011;15704;48.834;8.736;2024-02-21T09:28:52;1.02;;;0.80;;
28483;SDS011;15704;48.834;8.736;2024-02-21T09:31:19;1.17;;;0.93;;
28483;SDS011;15704;48.834;8.736;2024-02-21T09:33:46;1.05;;;0.80;;
28483;SDS011;15704;48.834;8.736;2024-02-21T09:36:13;0.60;;;0.60;;
28483;SDS011;15704;48.834;8.736;2024-02-21T09:38:40;1.20;;;0.70;;
28483;SDS011;15704;48.834;8.736;2024-02-21T09:41:18;0.77;;;0.68;;
28483;SDS011;15704;48.834;8.736;2024-02-21T09:43:52;1.50;;;0.90;;
28483;SDS011;15704;48.834;8.736;2024-02-21T09:46:24;0.50;;;0.50;;
28483;SDS011;15704;48.834;8.736;2024-02-21T09:49:26;1.02;;;0.65;;
28483;SDS011;15704;48.834;8.736;2024-02-21T09:52:01;1.05;;;0.65;;
28483;SDS011;15704;48.834;8.736;2024-02-21T09:54:30;0.85;;;0.70;;
28483;SDS011;15704;48.834;8.736;2024-02-21T09:57:00;1.02;;;0.70;;
28483;SDS011;15704;48.834;8.736;2024-02-21T09:59:27;0.82;;;0.70;;
28483;SDS011;15704;48.834;8.736;2024-02-21T10:01:58;0.70;;;0.63;;
28483;SDS011;15704;48.834;8.736;2024-02-21T10:04:29;0.90;;;0.80;;
28483;SDS011;15704;48.834;8.736;2024-02-21T10:06:56;0.80;;;0.60;;
28483;SDS011;15704;48.834;8.736;2024-02-21T10:09:32;1.13;;;0.70;;
28483;SDS011;15704;48.834;8.736;2024-02-21T10:12:09;0.60;;;0.60;;
28483;SDS011;15704;48.834;8.736;2024-02-21T10:14:37;1.15;;;0.68;;
28483;SDS011;15704;48.834;8.736;2024-02-21T10:17:04;1.02;;;0.60;;
28483;SDS011;15704;48.834;8.736;2024-02-21T10:19:36;0.82;;;0.80;;
28483;SDS011;15704;48.834;8.736;2024-02-21T10:22:07;1.17;;;0.70;;
28483;SDS011;15704;48.834;8.736;2024-02-21T10:24:35;0.70;;;0.55;;
28483;SDS011;15704;48.834;8.736;2024-02-21T10:27:08;1.45;;;0.75;;
28483;SDS011;15704;48.834;8.736;2024-02-21T10:29:39;0.80;;;0.60;;
28483;SDS011;15704;48.834;8.736;2024-02-21T10:34:38;0.88;;;0.80;;
28483;SDS011;15704;48.834;8.736;2024-02-21T10:37:07;0.98;;;0.80;;
28483;SDS011;15704;48.834;8.736;2024-02-21T10:39:38;0.95;;;0.70;;
28483;SDS011;15704;48.834;8.736;2024-02-21T10:42:07;0.80;;;0.70;;
28483;SDS011;15704;48.834;8.736;2024-02-21T10:44:38;0.40;;;0.40;;
28483;SDS011;15704;48.834;8.736;2024-02-21T10:47:08;0.75;;;0.70;;
28483;SDS011;15704;48.834;8.736;2024-02-21T10:49:39;0.70;;;0.60;;
28483;SDS011;15704;48.834;8.736;2024-02-21T10:52:15;2.13;;;0.90;;
28483;SDS011;15704;48.834;8.736;2024-02-21T10:57:33;1.42;;;0.77;;
28483;SDS011;15704;48.834;8.736;2024-02-21T11:00:03;1.00;;;0.60;;
28483;SDS011;15704;48.834;8.736;2024-02-21T11:02:34;0.80;;;0.80;;
28483;SDS011;15704;48.834;8.736;2024-02-21T11:05:02;0.52;;;0.50;;
28483;SDS011;15704;48.834;8.736;2024-02-21T11:07:31;1.23;;;0.80;;
28483;SDS011;15704;48.834;8.736;2024-02-21T11:10:01;1.05;;;0.57;;
28483;SDS011;15704;48.834;8.736;2024-02-21T11:12:32;0.75;;;0.52;;
28483;SDS011;15704;48.834;8.736;2024-02-21T11:15:03;0.55;;;0.52;;
28483;SDS011;15704;48.834;8.736;2024-02-21T11:17:33;0.50;;;0.50;;
28483;SDS011;15704;48.834;8.736;2024-02-21T11:20:15;0.60;;;0.60;;
28483;SDS011;15704;48.834;8.736;2024-02-21T11:22:42;0.63;;;0.50;;
28483;SDS011;15704;48.834;8.736;2024-02-21T11:25:13;1.02;;;0.70;;
28483;SDS011;15704;48.834;8.736;2024-02-21T11:27:49;1.08;;;0.60;;
28483;SDS011;15704;48.834;8.736;2024-02-21T11:30:17;0.60;;;0.60;;
28483;SDS011;15704;48.834;8.736;2024-02-21T11:32:50;0.50;;;0.47;;
28483;SDS011;15704;48.834;8.736;2024-02-21T11:35:34;0.75;;;0.50;;
28483;SDS011;15704;48.834;8.736;2024-02-21T11:38:08;0.88;;;0.60;;
28483;SDS011;15704;48.834;8.736;2024-02-21T11:40:40;0.90;;;0.70;;
28483;SDS011;15704;48.834;8.736;2024-02-21T11:43:08;0.70;;;0.60;;
28483;SDS011;15704;48.834;8.736;2024-02-21T11:45:37;0.90;;;0.60;;
28483;SDS011;15704;48.834;8.736;2024-02-21T11:48:06;0.98;;;0.60;;
28483;SDS011;15704;48.834;8.736;2024-02-21T11:50:36;0.75;;;0.60;;
28483;SDS011;15704;48.834;8.736;2024-02-21T11:53:05;0.90;;;0.60;;
28483;SDS011;15704;48.834;8.736;2024-02-21T11:55:32;0.50;;;0.50;;
28483;SDS011;15704;48.834;8.736;2024-02-21T11:58:00;1.35;;;0.70;;
28483;SDS011;15704;48.834;8.736;2024-02-21T12:00:27;1.30;;;0.77;;
28483;SDS011;15704;48.834;8.736;2024-02-21T12:02:54;0.55;;;0.55;;
28483;SDS011;15704;48.834;8.736;2024-02-21T12:05:22;1.08;;;0.70;;
28483;SDS011;15704;48.834;8.736;2024-02-21T12:07:49;1.00;;;0.60;;
28483;SDS011;15704;48.834;8.736;2024-02-21T12:10:16;0.63;;;0.60;;
28483;SDS011;15704;48.834;8.736;2024-02-21T12:12:43;1.17;;;0.63;;
28483;SDS011;15704;48.834;8.736;2024-02-21T12:15:10;1.05;;;0.77;;
28483;SDS011;15704;48.834;8.736;2024-02-21T12:17:37;1.50;;;0.77;;
28483;SDS011;15704;48.834;8.736;2024-02-21T12:20:06;0.77;;;0.60;;
28483;SDS011;15704;48.834;8.736;2024-02-21T12:22:38;0.90;;;0.63;;
28483;SDS011;15704;48.834;8.736;2024-02-21T12:27:52;0.50;;;0.50;;
28483;SDS011;15704;48.834;8.736;2024-02-21T12:30:19;0.60;;;0.60;;
28483;SDS011;15704;48.834;8.736;2024-02-21T12:32:46;0.50;;;0.50;;
28483;SDS011;15704;48.834;8.736;2024-02-21T12:35:15;0.65;;;0.57;;
28483;SDS011;15704;48.834;8.736;2024-02-21T12:37:42;0.52;;;0.50;;
28483;SDS011;15704;48.834;8.736;2024-02-21T12:40:09;0.40;;;0.40;;
28483;SDS011;15704;48.834;8.736;2024-02-21T12:42:37;0.90;;;0.68;;
28483;SDS011;15704;48.834;8.736;2024-02-21T12:45:04;0.43;;;0.43;;
28483;SDS011;15704;48.834;8.736;2024-02-21T12:47:31;0.55;;;0.40;;
28483;SDS011;15704;48.834;8.736;2024-02-21T12:49:58;0.63;;;0.55;;
28483;SDS011;15704;48.834;8.736;2024-02-21T12:52:25;0.50;;;0.50;;
28483;SDS011;15704;48.834;8.736;2024-02-21T12:54:52;0.38;;;0.38;;
28483;SDS011;15704;48.834;8.736;2024-02-21T12:57:22;0.95;;;0.65;;
28483;SDS011;15704;48.834;8.736;2024-02-21T12:59:52;0.80;;;0.70;;
28483;SDS011;15704;48.834;8.736;2024-02-21T13:02:19;0.50;;;0.50;;
28483;SDS011;15704;48.834;8.736;2024-02-21T13:04:47;0.65;;;0.57;;
28483;SDS011;15704;48.834;8.736;2024-02-21T13:07:14;0.93;;;0.60;;
28483;SDS011;15704;48.834;8.736;2024-02-21T13:09:40;1.42;;;0.55;;
28483;SDS011;15704;48.834;8.736;2024-02-21T13:12:07;0.80;;;0.60;;
28483;SDS011;15704;48.834;8.736;2024-02-21T13:14:34;0.57;;;0.57;;
28483;SDS011;15704;48.834;8.736;2024-02-21T13:17:03;0.77;;;0.50;;
28483;SDS011;15704;48.834;8.736;2024-02-21T13:19:30;1.60;;;0.50;;
28483;SDS011;15704;48.834;8.736;2024-02-21T13:21:57;0.65;;;0.57;;
28483;SDS011;15704;48.834;8.736;2024-02-21T13:24:24;1.45;;;0.70;;
28483;SDS011;15704;48.834;8.736;2024-02-21T13:26:50;3.38;;;0.50;;
28483;SDS011;15704;48.834;8.736;2024-02-21T13:29:19;6.60;;;1.00;;
28483;SDS011;15704;48.834;8.736;2024-02-21T13:31:46;2.90;;;0.73;;
28483;SDS011;15704;48.834;8.736;2024-02-21T13:34:13;1.67;;;0.75;;
28483;SDS011;15704;48.834;8.736;2024-02-21T13:36:40;2.88;;;0.90;;
28483;SDS011;15704;48.834;8.736;2024-02-21T13:39:07;3.88;;;0.95;;
28483;SDS011;15704;48.834;8.736;2024-02-21T13:41:34;7.80;;;1.15;;
28483;SDS011;15704;48.834;8.736;2024-02-21T13:44:01;7.10;;;1.33;;
28483;SDS011;15704;48.834;8.736;2024-02-21T13:46:30;11.18;;;1.42;;
28483;SDS011;15704;48.834;8.736;2024-02-21T13:49:02;1.85;;;0.68;;
28483;SDS011;15704;48.834;8.736;2024-02-21T13:51:33;3.22;;;0.93;;
28483;SDS011;15704;48.834;8.736;2024-02-21T13:54:04;3.70;;;0.93;;
28483;SDS011;15704;48.834;8.736;2024-02-21T13:56:31;5.43;;;1.08;;
28483;SDS011;15704;48.834;8.736;2024-02-21T13:58:58;4.00;;;1.23;;
28483;SDS011;15704;48.834;8.736;2024-02-21T14:01:26;9.43;;;1.50;;
28483;SDS011;15704;48.834;8.736;2024-02-21T14:03:58;5.75;;;1.42;;
28483;SDS011;15704;48.834;8.736;2024-02-21T14:06:25;2.80;;;1.20;;
28483;SDS011;15704;48.834;8.736;2024-02-21T14:08:52;5.60;;;1.50;;
28483;SDS011;15704;48.834;8.736;2024-02-21T14:11:19;2.25;;;0.90;;
28483;SDS011;15704;48.834;8.736;2024-02-21T14:13:45;4.53;;;1.50;;
28483;SDS011;15704;48.834;8.736;2024-02-21T14:16:12;6.22;;;2.33;;
28483;SDS011;15704;48.834;8.736;2024-02-21T14:18:40;2.33;;;1.00;;
28483;SDS011;15704;48.834;8.736;2024-02-21T14:21:12;3.10;;;1.15;;
28483;SDS011;15704;48.834;8.736;2024-02-21T14:23:39;3.55;;;1.00;;
28483;SDS011;15704;48.834;8.736;2024-02-21T14:26:06;2.10;;;1.00;;
28483;SDS011;15704;48.834;8.736;2024-02-21T14:28:34;1.77;;;0.88;;
28483;SDS011;15704;48.834;8.736;2024-02-21T14:31:01;3.45;;;1.15;;
28483;SDS011;15704;48.834;8.736;2024-02-21T14:33:29;4.43;;;1.10;;
28483;SDS011;15704;48.834;8.736;2024-02-21T14:35:57;3.58;;;1.10;;
28483;SDS011;15704;48.834;8.736;2024-02-21T14:38:24;2.55;;;1.20;;
28483;SDS011;15704;48.834;8.736;2024-02-21T14:40:50;4.03;;;1.10;;
28483;SDS011;15704;48.834;8.736;2024-02-21T14:43:17;3.47;;;1.08;;
28483;SDS011;15704;48.834;8.736;2024-02-21T14:45:44;1.73;;;1.02;;
28483;SDS011;15704;48.834;8.736;2024-02-21T14:48:14;2.10;;;1.25;;
28483;SDS011;15704;48.834;8.736;2024-02-21T14:50:41;1.58;;;1.10;;
28483;SDS011;15704;48.834;8.736;2024-02-21T14:53:11;1.45;;;1.00;;
28483;SDS011;15704;48.834;8.736;2024-02-21T14:55:38;2.22;;;1.10;;
28483;SDS011;15704;48.834;8.736;2024-02-21T14:58:08;1.67;;;1.13;;
28483;SDS011;15704;48.834;8.736;2024-02-21T15:00:35;3.00;;;1.42;;